createdAt,value
2019-02-04T00:01:23.373Z,6.50
2019-02-04T00:03:52.856Z,6.60
2019-02-04T00:06:20.804Z,6.40
2019-02-04T00:08:48.767Z,6.30
2019-02-04T00:11:16.701Z,6.40
2019-02-04T00:13:44.575Z,6.20
2019-02-04T00:16:12.804Z,5.90
2019-02-04T00:18:40.896Z,5.50
2019-02-04T00:21:08.880Z,5.50
2019-02-04T00:23:36.841Z,5.60
2019-02-04T00:26:04.789Z,5.50
2019-02-04T00:28:33.844Z,5.60
2019-02-04T00:31:05.045Z,5.60
2019-02-04T00:33:32.439Z,5.50
2019-02-04T00:36:00.346Z,5.50
2019-02-04T00:38:28.400Z,5.40
2019-02-04T00:40:56.333Z,5.30
2019-02-04T00:43:24.319Z,5.20
2019-02-04T00:45:52.338Z,5.10
2019-02-04T00:48:20.891Z,4.90
2019-02-04T00:50:49.128Z,4.90
2019-02-04T00:53:17.090Z,4.90
2019-02-04T00:55:45.024Z,4.90
2019-02-04T00:58:12.981Z,4.70
2019-02-04T01:00:40.942Z,4.80
2019-02-04T01:03:09.411Z,4.60
2019-02-04T01:05:37.265Z,4.60
2019-02-04T01:08:05.338Z,4.60
2019-02-04T01:10:35.585Z,4.60
2019-02-04T01:13:03.640Z,4.70
2019-02-04T01:15:31.631Z,4.50
2019-02-04T01:17:59.594Z,4.70
2019-02-04T01:20:28.369Z,4.80
2019-02-04T01:22:58.109Z,4.70
2019-02-04T01:25:27.047Z,4.50
2019-02-04T01:27:54.980Z,4.50
2019-02-04T01:30:23.882Z,4.40
2019-02-04T01:32:52.146Z,4.40
2019-02-04T01:35:20.314Z,4.50
2019-02-04T01:37:48.275Z,4.00
2019-02-04T01:40:19.689Z,4.40
2019-02-04T01:42:48.007Z,4.60
2019-02-04T01:45:15.925Z,3.90
2019-02-04T01:47:43.922Z,4.20
2019-02-04T01:50:15.238Z,4.20
2019-02-04T01:52:43.266Z,4.10
2019-02-04T01:55:11.486Z,4.30
2019-02-04T01:57:42.139Z,4.00
2019-02-04T02:00:17.104Z,3.90
2019-02-04T02:02:45.206Z,3.30
2019-02-04T02:05:13.431Z,3.50
2019-02-04T02:07:43.373Z,3.90
2019-02-04T02:10:15.033Z,3.90
2019-02-04T02:12:43.067Z,4.10
2019-02-04T02:15:10.982Z,3.80
2019-02-04T02:17:39.692Z,3.80
2019-02-04T02:20:10.054Z,4.00
2019-02-04T02:22:37.960Z,3.60
2019-02-04T02:25:06.177Z,3.70
2019-02-04T02:27:34.065Z,3.70
2019-02-04T02:30:02.109Z,3.80
2019-02-04T02:32:31.186Z,3.60
2019-02-04T02:34:59.678Z,3.80
2019-02-04T02:37:27.585Z,3.80
2019-02-04T02:39:55.501Z,3.50
2019-02-04T02:42:23.444Z,3.60
2019-02-04T02:44:51.439Z,3.50
2019-02-04T02:47:19.309Z,3.50
2019-02-04T02:49:47.255Z,3.60
2019-02-04T02:52:15.166Z,3.70
2019-02-04T02:54:43.115Z,3.60
2019-02-04T02:57:11.022Z,3.70
2019-02-04T02:59:38.925Z,3.40
2019-02-04T03:02:06.882Z,3.00
2019-02-04T03:04:34.786Z,3.10
2019-02-04T03:07:03.053Z,2.60
2019-02-04T03:09:30.924Z,2.60
2019-02-04T03:11:58.895Z,2.70
2019-02-04T03:14:26.843Z,2.60
2019-02-04T03:16:54.702Z,2.70
2019-02-04T03:19:22.623Z,2.60
2019-02-04T03:21:50.526Z,2.40
2019-02-04T03:24:19.627Z,2.80
2019-02-04T03:26:48.266Z,2.90
2019-02-04T03:29:16.133Z,3.10
2019-02-04T03:31:46.015Z,3.10
2019-02-04T03:34:13.913Z,3.10
2019-02-04T03:36:41.841Z,3.30
2019-02-04T03:39:10.025Z,3.00
2019-02-04T03:41:57.364Z,3.40
2019-02-04T03:44:37.975Z,2.20
2019-02-04T03:47:25.965Z,3.20
2019-02-04T03:50:06.790Z,2.00
2019-02-04T03:52:34.650Z,3.40
2019-02-04T03:55:02.760Z,3.40
2019-02-04T03:57:30.693Z,3.00
2019-02-04T03:59:58.611Z,2.90
2019-02-04T04:02:26.571Z,2.60
2019-02-04T04:05:07.895Z,1.90
2019-02-04T04:07:35.745Z,2.50
2019-02-04T04:10:17.476Z,1.80
2019-02-04T04:15:47.650Z,2.50
2019-02-04T04:18:16.302Z,2.50
2019-02-04T04:20:44.300Z,2.70
2019-02-04T04:23:12.331Z,2.30
2019-02-04T04:25:59.734Z,2.30
2019-02-04T04:28:27.723Z,2.20
2019-02-04T04:30:56.805Z,2.10
2019-02-04T04:33:24.748Z,2.10
2019-02-04T04:35:52.706Z,1.80
2019-02-04T04:38:20.608Z,2.00
2019-02-04T04:40:48.550Z,1.80
2019-02-04T04:43:16.746Z,1.80
2019-02-04T04:45:44.773Z,2.00
2019-02-04T04:48:26.839Z,2.00
2019-02-04T04:51:14.609Z,1.60
2019-02-04T04:53:56.760Z,0.50
2019-02-04T04:56:37.150Z,1.10
2019-02-04T04:59:24.744Z,-0.20
2019-02-04T05:02:05.397Z,0.20
2019-02-04T05:04:33.368Z,1.30
2019-02-04T05:07:22.895Z,1.00
2019-02-04T05:10:04.120Z,1.10
2019-02-04T05:12:51.551Z,0.20
2019-02-04T05:15:46.117Z,1.30
2019-02-04T05:18:14.175Z,1.40
2019-02-04T05:20:55.176Z,0.50
2019-02-04T05:23:42.661Z,1.50
2019-02-04T05:26:23.584Z,0.70
2019-02-04T05:28:51.615Z,1.60
2019-02-04T05:31:32.609Z,1.70
2019-02-04T05:34:19.249Z,1.80
2019-02-04T05:37:02.211Z,1.50
2019-02-04T05:39:30.102Z,1.50
2019-02-04T05:41:58.131Z,1.60
2019-02-04T05:44:45.575Z,1.90
2019-02-04T05:47:26.503Z,1.70
2019-02-04T05:49:54.546Z,1.70
2019-02-04T05:52:22.500Z,1.30
2019-02-04T05:54:50.777Z,1.60
2019-02-04T05:57:18.863Z,1.80
2019-02-04T06:00:08.334Z,1.70
2019-02-04T06:02:49.112Z,1.50
2019-02-04T06:05:36.630Z,0.60
2019-02-04T06:08:17.168Z,1.80
2019-02-04T06:10:45.255Z,1.60
2019-02-04T06:16:33.596Z,1.40
2019-02-04T06:22:20.731Z,1.60
2019-02-04T06:25:02.250Z,0.60
2019-02-04T06:30:27.060Z,1.30
2019-02-04T06:33:22.197Z,0.70
2019-02-04T06:36:03.041Z,0.80
2019-02-04T06:41:29.651Z,1.80
2019-02-04T06:44:00.269Z,1.10
2019-02-04T06:46:42.471Z,1.40
2019-02-04T06:49:12.512Z,0.60
2019-02-04T06:51:40.681Z,0.40
2019-02-04T06:54:08.673Z,0.60
2019-02-04T06:56:36.600Z,0.70
2019-02-04T06:59:24.849Z,0.80
2019-02-04T07:02:06.093Z,1.20
2019-02-04T07:04:53.548Z,1.20
2019-02-04T07:07:35.277Z,0.80
2019-02-04T07:10:23.618Z,1.10
2019-02-04T07:13:04.342Z,1.30
2019-02-04T07:15:44.992Z,1.40
2019-02-04T07:18:26.302Z,1.30
2019-02-04T07:21:07.931Z,-0.10
2019-02-04T07:23:35.895Z,1.40
2019-02-04T07:26:03.962Z,1.30
2019-02-04T07:28:33.854Z,1.30
2019-02-04T07:31:15.356Z,1.80
2019-02-04T07:33:43.461Z,1.50
2019-02-04T07:36:11.428Z,1.80
2019-02-04T07:38:40.910Z,1.60
2019-02-04T07:41:08.990Z,1.50
2019-02-04T07:43:56.399Z,0.20
2019-02-04T07:46:36.572Z,1.40
2019-02-04T07:49:34.789Z,0.40
2019-02-04T07:52:08.404Z,1.70
2019-02-04T07:54:36.330Z,1.70
2019-02-04T07:57:04.416Z,2.40
2019-02-04T07:59:32.802Z,2.60
2019-02-04T08:02:00.826Z,2.80
2019-02-04T08:04:29.927Z,1.40
2019-02-04T08:07:11.520Z,0.90
2019-02-04T08:09:59.039Z,2.20
2019-02-04T08:12:39.828Z,2.70
2019-02-04T08:15:29.979Z,3.10
2019-02-04T08:18:11.012Z,2.70
2019-02-04T08:20:39.027Z,2.90
2019-02-04T08:23:22.936Z,3.00
2019-02-04T08:25:51.005Z,3.20
2019-02-04T08:28:19.797Z,3.30
2019-02-04T08:31:07.376Z,3.10
2019-02-04T08:33:48.333Z,3.40
2019-02-04T08:36:43.240Z,2.30
2019-02-04T08:39:38.678Z,2.70
2019-02-04T08:42:06.722Z,4.30
2019-02-04T08:44:34.673Z,4.40
2019-02-04T08:47:02.628Z,4.50
2019-02-04T08:49:30.602Z,4.10
2019-02-04T08:51:58.692Z,4.40
2019-02-04T08:54:40.593Z,4.70
2019-02-04T08:57:21.649Z,3.80
2019-02-04T09:00:11.437Z,4.60
2019-02-04T09:02:39.605Z,5.00
2019-02-04T09:05:08.870Z,5.60
2019-02-04T09:07:48.959Z,5.60
2019-02-04T09:10:21.131Z,5.40
2019-02-04T09:12:50.548Z,5.80
2019-02-04T09:15:18.603Z,5.60
2019-02-04T09:18:06.466Z,4.20
2019-02-04T09:20:47.236Z,4.20
2019-02-04T09:23:35.339Z,3.90
2019-02-04T09:26:16.634Z,4.10
2019-02-04T09:28:44.617Z,5.30
2019-02-04T09:31:32.831Z,5.40
2019-02-04T09:34:17.587Z,5.00
2019-02-04T09:37:05.985Z,5.20
2019-02-04T09:39:48.070Z,5.50
2019-02-04T09:42:35.899Z,4.70
2019-02-04T09:45:17.718Z,3.80
2019-02-04T09:47:45.852Z,5.90
2019-02-04T09:50:21.791Z,6.00
2019-02-04T09:53:03.189Z,5.90
2019-02-04T09:55:51.042Z,4.80
2019-02-04T09:58:34.943Z,5.10
2019-02-04T10:01:22.504Z,6.10
2019-02-04T10:04:05.096Z,5.40
2019-02-04T10:06:55.365Z,6.20
2019-02-04T10:09:23.085Z,5.80
2019-02-04T10:11:51.341Z,5.90
2019-02-04T10:14:19.380Z,5.90
2019-02-04T10:16:47.504Z,5.80
2019-02-04T10:19:28.937Z,5.10
2019-02-04T10:22:12.770Z,6.50
2019-02-04T10:25:00.452Z,6.30
2019-02-04T10:27:28.886Z,6.50
2019-02-04T10:30:01.138Z,6.40
2019-02-04T10:32:45.336Z,5.20
2019-02-04T10:35:16.867Z,6.50
2019-02-04T10:37:44.570Z,7.00
2019-02-04T10:40:16.424Z,6.50
2019-02-04T10:42:58.742Z,5.70
2019-02-04T10:45:46.762Z,7.20
2019-02-04T10:48:15.126Z,6.90
2019-02-04T10:50:46.618Z,7.50
2019-02-04T10:53:13.975Z,7.20
2019-02-04T10:58:46.487Z,7.10
2019-02-04T11:01:14.940Z,7.80
2019-02-04T11:03:43.254Z,7.60
2019-02-04T11:06:11.443Z,7.70
2019-02-04T11:09:02.907Z,7.30
2019-02-04T11:11:45.195Z,8.10
2019-02-04T11:14:26.400Z,8.50
2019-02-04T11:17:26.747Z,8.20
2019-02-04T11:19:54.825Z,8.10
2019-02-04T11:22:42.137Z,8.70
2019-02-04T11:25:24.961Z,6.70
2019-02-04T11:27:53.269Z,7.60
2019-02-04T11:33:41.341Z,8.20
2019-02-04T11:36:29.103Z,6.90
2019-02-04T11:39:10.236Z,6.60
2019-02-04T11:41:39.070Z,8.00
2019-02-04T11:44:27.080Z,8.80
2019-02-04T11:47:20.413Z,6.70
2019-02-04T11:49:50.305Z,7.80
2019-02-04T11:52:18.808Z,8.40
2019-02-04T11:55:10.519Z,8.20
2019-02-04T11:57:55.689Z,7.70
2019-02-04T12:00:44.240Z,7.40
2019-02-04T12:03:24.710Z,7.80
2019-02-04T12:06:13.472Z,6.70
2019-02-04T12:08:54.046Z,6.40
2019-02-04T12:11:41.961Z,7.90
2019-02-04T12:14:10.356Z,8.10
2019-02-04T12:16:38.420Z,7.70
2019-02-04T12:19:18.599Z,8.00
2019-02-04T12:22:02.690Z,8.20
2019-02-04T12:24:50.056Z,7.90
2019-02-04T12:27:32.015Z,8.20
2019-02-04T12:30:31.534Z,7.80
2019-02-04T12:33:00.213Z,7.90
2019-02-04T12:35:28.191Z,8.00
2019-02-04T12:38:17.070Z,7.70
2019-02-04T12:40:45.221Z,8.10
2019-02-04T12:43:13.451Z,8.20
2019-02-04T12:45:55.510Z,7.70
2019-02-04T12:48:38.853Z,8.00
2019-02-04T12:51:07.372Z,7.80
2019-02-04T12:56:53.527Z,8.20
2019-02-04T13:05:41.659Z,7.40
2019-02-04T13:08:22.138Z,8.50
2019-02-04T13:11:10.116Z,8.20
2019-02-04T13:13:51.350Z,8.10
2019-02-04T13:16:19.462Z,8.20
2019-02-04T13:18:47.838Z,7.90
2019-02-04T13:21:45.225Z,7.90
2019-02-04T13:24:26.016Z,8.00
2019-02-04T13:27:13.665Z,8.10
2019-02-04T13:29:55.019Z,8.00
2019-02-04T13:32:42.689Z,7.90
2019-02-04T13:35:23.818Z,8.40
2019-02-04T13:38:11.627Z,8.40
2019-02-04T15:25:17.938Z,7.90
2019-02-04T15:31:21.268Z,8.20
2019-02-04T15:34:07.081Z,7.00
2019-02-04T15:37:12.696Z,7.50
2019-02-04T15:40:39.300Z,8.00
2019-02-04T15:44:07.171Z,7.90
2019-02-04T15:46:59.891Z,8.40
2019-02-04T15:50:11.749Z,8.20
2019-02-04T15:52:45.693Z,8.20
2019-02-04T15:55:14.882Z,7.80
2019-02-04T15:57:42.935Z,7.70
2019-02-04T16:00:12.067Z,8.00
2019-02-04T16:02:40.059Z,7.90
2019-02-04T16:05:09.034Z,8.00
2019-02-04T16:07:37.492Z,8.00
2019-02-04T16:10:10.149Z,8.10
2019-02-04T16:12:38.181Z,7.60
2019-02-04T16:15:07.815Z,7.50
2019-02-04T16:17:35.910Z,7.70
2019-02-04T16:20:10.421Z,7.60
2019-02-04T16:22:38.448Z,7.60
2019-02-04T16:25:08.013Z,7.40
2019-02-04T16:27:36.009Z,8.10
2019-02-04T16:30:08.227Z,8.00
2019-02-04T16:32:36.349Z,8.10
2019-02-04T16:35:06.726Z,8.00
2019-02-04T16:37:34.942Z,7.90
2019-02-04T16:40:03.780Z,7.90
2019-02-04T16:42:31.880Z,7.70
2019-02-04T16:44:59.906Z,7.70
2019-02-04T16:47:28.260Z,7.50
2019-02-04T16:49:58.397Z,7.50
2019-02-04T16:52:26.891Z,7.70
2019-02-04T16:54:55.861Z,7.70
2019-02-04T16:57:23.902Z,8.00
2019-02-04T16:59:52.124Z,8.00
2019-02-04T17:02:20.285Z,7.90
2019-02-04T17:04:59.256Z,7.80
2019-02-04T17:07:27.316Z,8.00
2019-02-04T17:09:55.342Z,8.00
2019-02-04T17:12:24.703Z,7.70
2019-02-04T17:14:52.979Z,7.90
2019-02-04T17:17:21.063Z,7.90
2019-02-04T17:19:49.197Z,8.00
2019-02-04T17:22:17.704Z,7.80
2019-02-04T17:24:45.903Z,7.90
2019-02-04T17:27:13.965Z,7.80
2019-02-04T17:29:42.035Z,7.90
2019-02-04T17:32:10.250Z,7.90
2019-02-04T17:34:38.478Z,7.90
2019-02-04T17:37:06.455Z,7.80
2019-02-04T17:39:34.666Z,7.70
2019-02-04T17:42:02.757Z,7.40
2019-02-04T17:44:31.519Z,7.80
2019-02-04T17:47:00.954Z,7.80
2019-02-04T17:49:29.212Z,7.80
2019-02-04T17:51:57.283Z,7.90
2019-02-04T17:54:25.770Z,7.80
2019-02-04T17:56:54.232Z,8.00
2019-02-04T17:59:23.219Z,8.00
2019-02-04T18:01:51.875Z,7.90
2019-02-04T18:04:20.302Z,7.80
2019-02-04T18:06:48.441Z,7.50
2019-02-04T18:09:16.855Z,7.20
2019-02-04T18:11:47.587Z,7.30
2019-02-04T18:14:15.752Z,7.30
2019-02-04T18:16:43.897Z,7.40
2019-02-04T18:19:12.204Z,7.30
2019-02-04T18:21:40.359Z,7.30
2019-02-04T18:24:09.440Z,7.40
2019-02-04T18:26:37.620Z,7.50
2019-02-04T18:29:08.024Z,6.50
2019-02-04T18:31:36.147Z,7.40
2019-02-04T18:34:05.105Z,7.40
2019-02-04T18:36:33.328Z,7.50
2019-02-04T18:39:08.551Z,7.40
2019-02-04T18:41:36.687Z,7.30
2019-02-04T18:44:06.560Z,7.30
2019-02-04T18:46:35.024Z,7.20
2019-02-04T18:49:03.556Z,7.00
2019-02-04T18:51:32.060Z,6.80
2019-02-04T18:54:00.731Z,7.00
2019-02-04T18:56:28.939Z,6.80
2019-02-04T18:58:57.058Z,6.70
2019-02-04T19:01:25.228Z,6.70
2019-02-04T19:03:53.419Z,6.60
2019-02-04T19:06:23.079Z,6.40
2019-02-04T19:08:51.579Z,6.40
2019-02-04T19:11:19.815Z,6.40
2019-02-04T19:13:48.274Z,6.30
2019-02-04T19:16:16.693Z,6.40
2019-02-04T19:18:45.950Z,6.50
2019-02-04T19:21:14.292Z,6.50
2019-02-04T19:23:43.042Z,6.80
2019-02-04T19:26:11.086Z,6.50
2019-02-04T19:28:39.240Z,6.50
2019-02-04T19:31:24.272Z,6.60
2019-02-04T19:33:52.428Z,6.50
2019-02-04T19:36:20.892Z,6.50
2019-02-04T19:38:49.220Z,6.60
2019-02-04T19:41:17.516Z,6.70
2019-02-04T19:43:46.041Z,6.70
2019-02-04T19:46:15.332Z,6.60
2019-02-04T19:48:43.886Z,6.30
2019-02-04T19:51:12.307Z,6.30
2019-02-04T19:53:40.834Z,6.50
2019-02-04T19:56:09.184Z,6.10
2019-02-04T19:58:37.582Z,5.90
2019-02-04T20:01:05.861Z,5.60
2019-02-04T20:03:37.262Z,6.00
2019-02-04T20:06:06.725Z,6.10
2019-02-04T20:08:35.267Z,5.90
2019-02-04T20:11:06.427Z,6.30
2019-02-04T20:13:34.838Z,6.00
2019-02-04T20:16:03.649Z,6.20
2019-02-04T20:18:32.041Z,6.30
2019-02-04T20:21:00.622Z,6.50
2019-02-04T20:23:30.057Z,6.60
2019-02-04T20:25:58.386Z,6.50
2019-02-04T20:28:26.575Z,6.50
2019-02-04T20:30:55.163Z,6.60
2019-02-04T20:33:23.523Z,6.60
2019-02-04T20:35:52.065Z,6.50
2019-02-04T20:38:20.387Z,6.50
2019-02-04T20:40:48.633Z,6.10
2019-02-04T20:43:16.843Z,6.40
2019-02-04T20:45:45.191Z,6.40
2019-02-04T20:48:14.498Z,5.90
2019-02-04T20:50:45.117Z,5.80
2019-02-04T20:53:14.306Z,5.80
2019-02-04T20:55:42.840Z,5.90
2019-02-04T20:58:11.251Z,5.50
2019-02-04T21:00:39.328Z,5.70
2019-02-04T21:03:07.743Z,6.00
2019-02-04T21:05:35.937Z,5.80
2019-02-04T21:08:06.594Z,5.80
2019-02-04T21:10:36.275Z,6.10
2019-02-04T21:13:04.793Z,6.00
2019-02-04T21:15:33.302Z,6.00
2019-02-04T21:18:01.591Z,6.20
2019-02-04T21:20:29.918Z,6.30
2019-02-04T21:22:58.184Z,6.30
2019-02-04T21:25:26.532Z,6.40
2019-02-04T21:27:54.766Z,6.30
2019-02-04T21:30:29.242Z,6.40
2019-02-04T21:32:57.577Z,6.40
2019-02-04T21:35:25.633Z,6.30
2019-02-04T21:37:53.729Z,5.90
2019-02-04T21:40:21.993Z,6.00
2019-02-04T21:42:50.415Z,6.30
2019-02-04T21:45:19.621Z,6.30
2019-02-04T21:47:48.239Z,6.20
2019-02-04T21:50:19.394Z,6.20
2019-02-04T21:52:49.328Z,6.20
2019-02-04T21:55:20.059Z,6.30
2019-02-04T21:57:48.345Z,6.30
2019-02-04T22:00:22.999Z,5.90
2019-02-04T22:02:53.214Z,6.00
2019-02-04T22:05:25.327Z,5.90
2019-02-04T22:07:53.565Z,5.90
2019-02-04T22:10:23.899Z,5.60
2019-02-04T22:12:52.051Z,5.90
2019-02-04T22:15:20.380Z,5.30
2019-02-04T22:17:48.641Z,5.70
2019-02-04T22:20:18.201Z,6.10
2019-02-04T22:22:47.074Z,6.20
2019-02-04T22:25:19.610Z,5.80
2019-02-04T22:27:47.211Z,5.90
2019-02-04T22:30:22.030Z,5.80
2019-02-04T22:32:50.221Z,5.90
2019-02-04T22:35:18.306Z,5.80
2019-02-04T22:37:46.365Z,5.90
2019-02-04T22:40:20.688Z,6.10
2019-02-04T22:42:48.728Z,6.50
2019-02-04T22:45:16.816Z,6.60
2019-02-04T22:47:45.277Z,5.90
2019-02-04T22:50:17.444Z,5.90
2019-02-04T22:52:45.747Z,6.10
2019-02-04T22:55:14.542Z,6.00
2019-02-04T22:57:42.699Z,6.00
2019-02-04T23:00:59.169Z,6.00
2019-02-04T23:03:27.373Z,6.10
2019-02-04T23:05:55.857Z,6.10
2019-02-04T23:08:23.808Z,5.60
2019-02-04T23:13:18.483Z,5.90
2019-02-04T23:15:46.457Z,6.00
2019-02-04T23:18:14.693Z,6.00
2019-02-04T23:20:42.755Z,6.00
2019-02-04T23:23:10.797Z,6.00
2019-02-04T23:25:43.450Z,5.80
2019-02-04T23:28:08.825Z,5.80
2019-02-04T23:30:42.822Z,5.90
2019-02-04T23:33:10.741Z,6.00
2019-02-04T23:35:38.800Z,6.00
2019-02-04T23:38:06.852Z,6.00
2019-02-04T23:40:35.045Z,5.90
2019-02-04T23:43:03.282Z,5.70
2019-02-04T23:45:31.216Z,5.90
2019-02-04T23:47:59.602Z,6.00
2019-02-04T23:50:27.554Z,6.20
2019-02-04T23:52:57.511Z,5.60
2019-02-04T23:55:25.379Z,5.70
2019-02-04T23:57:53.335Z,5.90
